createdAt,value
2018-04-24T00:00:17.658Z,13.86
2018-04-24T00:02:45.311Z,13.82
2018-04-24T00:05:12.853Z,13.79
2018-04-24T00:07:40.513Z,13.76
2018-04-24T00:10:08.093Z,13.74
2018-04-24T00:12:35.634Z,13.72
2018-04-24T00:15:03.171Z,13.67
2018-04-24T00:17:30.869Z,13.65
2018-04-24T00:19:58.432Z,13.61
2018-04-24T00:22:26.005Z,13.57
2018-04-24T00:24:53.674Z,13.55
2018-04-24T00:27:21.208Z,13.50
2018-04-24T00:29:48.756Z,13.47
2018-04-24T00:32:16.315Z,13.44
2018-04-24T00:34:43.928Z,13.43
2018-04-24T00:37:11.534Z,13.41
2018-04-24T00:39:39.088Z,13.39
2018-04-24T00:42:06.634Z,13.36
2018-04-24T00:44:34.178Z,13.34
2018-04-24T00:47:01.734Z,13.29
2018-04-24T00:49:29.259Z,13.26
2018-04-24T00:51:57.016Z,13.24
2018-04-24T00:54:24.575Z,13.22
2018-04-24T00:56:52.125Z,13.17
2018-04-24T00:59:19.703Z,13.15
2018-04-24T01:01:47.264Z,13.11
2018-04-24T01:04:14.813Z,13.08
2018-04-24T01:06:42.474Z,13.12
2018-04-24T01:09:09.992Z,13.05
2018-04-24T01:11:38.734Z,13.00
2018-04-24T01:14:06.456Z,12.96
2018-04-24T01:16:33.983Z,12.93
2018-04-24T01:19:01.532Z,12.92
2018-04-24T01:21:29.136Z,12.90
2018-04-24T01:23:56.695Z,12.88
2018-04-24T01:26:24.236Z,12.85
2018-04-24T01:28:51.825Z,12.83
2018-04-24T01:31:19.355Z,12.78
2018-04-24T01:33:46.893Z,12.74
2018-04-24T01:36:14.483Z,12.73
2018-04-24T01:38:42.025Z,12.71
2018-04-24T01:41:09.572Z,12.69
2018-04-24T01:43:37.139Z,12.67
2018-04-24T01:46:04.683Z,12.74
2018-04-24T01:48:32.228Z,12.65
2018-04-24T01:50:59.804Z,12.62
2018-04-24T01:53:27.339Z,12.60
2018-04-24T01:55:54.872Z,12.55
2018-04-24T01:58:22.488Z,12.53
2018-04-24T02:00:50.023Z,12.51
2018-04-24T02:03:17.566Z,12.48
2018-04-24T02:05:45.139Z,12.44
2018-04-24T02:08:12.674Z,12.42
2018-04-24T02:10:40.213Z,12.38
2018-04-24T02:13:07.879Z,12.38
2018-04-24T02:15:35.407Z,12.36
2018-04-24T02:18:02.975Z,12.34
2018-04-24T02:20:30.551Z,12.31
2018-04-24T02:22:58.099Z,12.30
2018-04-24T02:25:25.649Z,12.29
2018-04-24T02:27:53.309Z,12.26
2018-04-24T02:30:20.848Z,12.26
2018-04-24T02:32:48.393Z,12.23
2018-04-24T02:35:16.046Z,12.21
2018-04-24T02:37:43.593Z,12.18
2018-04-24T02:40:11.128Z,12.14
2018-04-24T02:42:38.699Z,12.12
2018-04-24T02:45:06.252Z,12.13
2018-04-24T02:47:33.810Z,12.08
2018-04-24T02:50:01.389Z,12.04
2018-04-24T02:52:28.929Z,12.03
2018-04-24T02:54:56.463Z,12.01
2018-04-24T02:57:24.139Z,11.97
2018-04-24T02:59:51.681Z,11.96
2018-04-24T03:02:19.225Z,11.95
2018-04-24T03:04:46.821Z,11.94
2018-04-24T03:07:14.356Z,11.92
2018-04-24T03:09:41.916Z,11.91
2018-04-24T03:12:09.762Z,11.87
2018-04-24T03:14:37.301Z,11.91
2018-04-24T03:17:04.839Z,11.88
2018-04-24T03:19:32.710Z,11.86
2018-04-24T03:22:00.284Z,11.85
2018-04-24T03:24:27.817Z,11.87
2018-04-24T03:26:55.381Z,11.90
2018-04-24T03:29:22.924Z,11.91
2018-04-24T03:31:50.464Z,11.93
2018-04-24T03:34:18.033Z,11.96
2018-04-24T03:36:45.580Z,12.05
2018-04-24T03:39:13.115Z,12.15
2018-04-24T03:41:40.687Z,12.33
2018-04-24T03:44:08.253Z,12.62
2018-04-24T03:46:35.793Z,13.22
2018-04-24T03:49:03.368Z,14.11
2018-04-24T03:51:30.906Z,15.14
2018-04-24T03:53:58.433Z,16.23
2018-04-24T03:56:25.995Z,17.31
2018-04-24T03:58:53.541Z,18.51
2018-04-24T04:01:21.080Z,19.63
2018-04-24T04:03:48.743Z,20.72
2018-04-24T04:06:16.291Z,22.09
2018-04-24T04:08:43.854Z,23.32
2018-04-24T04:11:11.627Z,24.19
2018-04-24T04:13:39.168Z,25.37
2018-04-24T04:16:06.722Z,26.58
2018-04-24T04:18:46.222Z,26.69
2018-04-24T04:21:25.424Z,27.61
2018-04-24T04:24:04.644Z,28.33
2018-04-24T04:26:32.187Z,28.14
2018-04-24T04:28:59.747Z,28.63
2018-04-24T04:31:27.424Z,28.80
2018-04-24T04:33:54.966Z,27.98
2018-04-24T04:36:22.515Z,27.87
2018-04-24T04:38:50.121Z,28.12
2018-04-24T04:41:17.677Z,27.64
2018-04-24T04:43:45.216Z,27.20
2018-04-24T04:46:12.768Z,28.26
2018-04-24T04:48:40.331Z,29.76
2018-04-24T04:51:08.068Z,30.53
2018-04-24T04:53:35.628Z,30.40
2018-04-24T04:56:03.264Z,30.81
2018-04-24T04:58:30.788Z,32.25
2018-04-24T05:00:58.331Z,33.72
2018-04-24T05:03:25.886Z,33.95
2018-04-24T05:05:53.604Z,33.72
2018-04-24T05:08:21.162Z,34.14
2018-04-24T05:10:48.708Z,34.20
2018-04-24T05:13:16.441Z,34.69
2018-04-24T05:15:43.986Z,34.64
2018-04-24T05:18:11.522Z,35.00
2018-04-24T05:20:39.403Z,35.89
2018-04-24T05:23:06.974Z,35.75
2018-04-24T05:25:34.537Z,36.28
2018-04-24T05:28:02.281Z,35.48
2018-04-24T05:30:29.859Z,35.75
2018-04-24T05:32:57.408Z,34.58
2018-04-24T05:35:25.285Z,34.22
2018-04-24T05:37:52.870Z,32.72
2018-04-24T05:40:20.404Z,31.93
2018-04-24T05:42:48.144Z,30.51
2018-04-24T05:45:15.696Z,30.47
2018-04-24T05:47:43.248Z,30.10
2018-04-24T05:50:10.903Z,29.05
2018-04-24T05:52:38.438Z,28.69
2018-04-24T05:55:05.981Z,28.36
2018-04-24T05:57:33.710Z,28.45
2018-04-24T06:00:01.260Z,28.43
2018-04-24T06:02:28.813Z,28.31
2018-04-24T06:04:56.496Z,27.55
2018-04-24T06:07:24.041Z,27.03
2018-04-24T06:09:51.598Z,26.68
2018-04-24T06:12:19.305Z,26.60
2018-04-24T06:14:46.864Z,26.58
2018-04-24T06:17:14.404Z,26.60
2018-04-24T06:19:41.989Z,26.45
2018-04-24T06:22:09.567Z,26.51
2018-04-24T06:24:37.119Z,26.56
2018-04-24T06:27:04.725Z,26.47
2018-04-24T06:29:32.281Z,26.19
2018-04-24T06:31:59.831Z,26.66
2018-04-24T06:34:27.457Z,26.81
2018-04-24T06:36:55.007Z,26.74
2018-04-24T06:39:22.558Z,26.83
2018-04-24T06:41:50.500Z,26.58
2018-04-24T06:44:18.048Z,26.26
2018-04-24T06:46:45.609Z,26.07
2018-04-24T06:49:13.299Z,25.67
2018-04-24T06:51:40.860Z,25.91
2018-04-24T06:54:08.415Z,26.19
2018-04-24T06:56:36.010Z,26.37
2018-04-24T06:59:03.556Z,26.41
2018-04-24T07:01:31.119Z,26.13
2018-04-24T07:03:58.695Z,26.46
2018-04-24T07:06:26.353Z,25.99
2018-04-24T07:08:53.887Z,26.15
2018-04-24T07:11:21.613Z,26.53
2018-04-24T07:13:49.161Z,26.52
2018-04-24T07:16:16.711Z,26.34
2018-04-24T07:18:44.404Z,25.77
2018-04-24T07:21:11.964Z,25.80
2018-04-24T07:23:39.508Z,25.60
2018-04-24T07:26:07.099Z,25.73
2018-04-24T07:28:34.654Z,26.18
2018-04-24T07:31:02.215Z,26.35
2018-04-24T07:33:29.942Z,26.47
2018-04-24T07:35:57.493Z,26.56
2018-04-24T07:38:25.065Z,26.60
2018-04-24T07:40:52.639Z,26.46
2018-04-24T07:43:20.176Z,26.15
2018-04-24T07:45:47.711Z,26.08
2018-04-24T07:48:15.320Z,26.34
2018-04-24T07:50:42.866Z,26.05
2018-04-24T07:53:10.425Z,25.83
2018-04-24T07:55:38.169Z,26.08
2018-04-24T07:58:05.712Z,25.72
2018-04-24T08:00:33.256Z,25.65
2018-04-24T08:03:00.934Z,25.39
2018-04-24T08:05:28.484Z,25.43
2018-04-24T08:07:56.045Z,25.12
2018-04-24T08:10:23.634Z,25.17
2018-04-24T08:12:51.190Z,25.09
2018-04-24T08:15:18.751Z,24.95
2018-04-24T08:17:46.331Z,24.97
2018-04-24T08:20:13.911Z,25.16
2018-04-24T08:22:41.433Z,25.05
2018-04-24T08:25:09.153Z,25.05
2018-04-24T08:27:36.747Z,25.06
2018-04-24T08:30:04.392Z,24.86
2018-04-24T08:32:31.977Z,24.76
2018-04-24T08:34:59.531Z,24.79
2018-04-24T08:37:27.085Z,24.86
2018-04-24T08:39:54.690Z,25.06
2018-04-24T08:42:22.231Z,25.48
2018-04-24T08:44:49.774Z,25.65
2018-04-24T08:47:17.315Z,25.41
2018-04-24T08:49:44.879Z,25.00
2018-04-24T08:52:12.733Z,24.73
2018-04-24T08:54:40.273Z,24.90
2018-04-24T08:57:07.846Z,25.01
2018-04-24T08:59:35.703Z,25.15
2018-04-24T09:02:03.322Z,25.22
2018-04-24T09:04:31.381Z,25.36
2018-04-24T09:06:59.102Z,25.34
2018-04-24T09:09:26.643Z,25.41
2018-04-24T09:11:54.240Z,25.56
2018-04-24T09:14:21.872Z,25.68
2018-04-24T09:16:49.413Z,25.62
2018-04-24T09:19:16.959Z,25.18
2018-04-24T09:21:44.847Z,25.10
2018-04-24T09:24:12.436Z,25.15
2018-04-24T09:26:39.979Z,25.46
2018-04-24T09:29:07.558Z,25.58
2018-04-24T09:31:41.400Z,25.94
2018-04-24T09:34:09.024Z,26.15
2018-04-24T09:36:36.566Z,26.40
2018-04-24T09:39:06.829Z,26.57
2018-04-24T09:41:34.860Z,26.78
2018-04-24T09:44:02.473Z,26.96
2018-04-24T09:46:29.996Z,27.20
2018-04-24T09:48:57.785Z,27.07
2018-04-24T09:51:25.340Z,26.67
2018-04-24T09:53:52.896Z,26.80
2018-04-24T09:56:20.628Z,27.16
2018-04-24T09:58:48.154Z,26.93
2018-04-24T10:01:16.431Z,26.84
2018-04-24T10:03:44.163Z,26.97
2018-04-24T10:06:11.733Z,27.19
2018-04-24T10:08:39.274Z,27.50
2018-04-24T10:11:07.129Z,27.68
2018-04-24T10:13:34.790Z,27.85
2018-04-24T10:16:02.282Z,27.89
2018-04-24T10:18:29.873Z,27.73
2018-04-24T10:20:57.426Z,27.79
2018-04-24T10:23:24.962Z,28.06
2018-04-24T10:25:52.566Z,28.35
2018-04-24T10:28:20.099Z,28.59
2018-04-24T10:30:47.634Z,28.71
2018-04-24T10:33:15.220Z,28.33
2018-04-24T10:35:42.765Z,28.37
2018-04-24T10:38:10.321Z,28.56
2018-04-24T10:40:37.891Z,28.71
2018-04-24T10:43:05.416Z,28.88
2018-04-24T10:45:32.984Z,28.73
2018-04-24T10:48:00.588Z,28.51
2018-04-24T10:50:28.133Z,28.64
2018-04-24T10:52:55.985Z,28.46
2018-04-24T10:55:23.527Z,28.43
2018-04-24T10:57:51.068Z,28.61
2018-04-24T11:00:18.644Z,28.73
2018-04-24T11:02:46.193Z,28.82
2018-04-24T11:05:13.736Z,28.97
2018-04-24T11:07:41.290Z,29.04
2018-04-24T11:10:08.838Z,29.01
2018-04-24T11:12:36.388Z,29.31
2018-04-24T11:15:03.982Z,29.53
2018-04-24T11:17:31.553Z,29.82
2018-04-24T11:19:59.102Z,29.91
2018-04-24T11:22:26.848Z,30.12
2018-04-24T11:24:54.379Z,30.34
2018-04-24T11:27:21.926Z,30.18
2018-04-24T11:29:49.513Z,30.25
2018-04-24T11:32:17.072Z,30.24
2018-04-24T11:34:44.603Z,29.91
2018-04-24T11:37:12.175Z,29.56
2018-04-24T11:39:39.712Z,29.56
2018-04-24T11:42:07.259Z,29.44
2018-04-24T11:44:34.931Z,29.57
2018-04-24T11:47:02.495Z,29.65
2018-04-24T11:49:30.056Z,29.80
2018-04-24T11:51:57.638Z,29.92
2018-04-24T11:54:25.189Z,30.06
2018-04-24T11:56:52.729Z,29.94
2018-04-24T11:59:20.342Z,29.69
2018-04-24T12:01:47.886Z,29.42
2018-04-24T12:04:15.429Z,29.21
2018-04-24T12:06:43.120Z,29.57
2018-04-24T12:09:10.651Z,29.54
2018-04-24T12:11:38.187Z,29.30
2018-04-24T12:14:05.763Z,29.31
2018-04-24T12:16:33.300Z,29.48
2018-04-24T12:19:00.836Z,29.62
2018-04-24T12:21:29.311Z,29.41
2018-04-24T12:23:56.831Z,29.27
2018-04-24T12:26:24.360Z,29.08
2018-04-24T12:28:52.281Z,29.20
2018-04-24T12:31:19.824Z,29.10
2018-04-24T12:33:47.354Z,28.88
2018-04-24T12:36:14.947Z,28.70
2018-04-24T12:38:42.575Z,28.58
2018-04-24T12:41:10.051Z,28.73
2018-04-24T12:43:37.692Z,28.72
2018-04-24T12:46:05.232Z,28.72
2018-04-24T12:48:32.767Z,28.85
2018-04-24T12:51:00.665Z,28.89
2018-04-24T12:53:28.214Z,29.07
2018-04-24T12:55:55.754Z,29.06
2018-04-24T12:58:23.465Z,28.93
2018-04-24T13:00:51.008Z,28.73
2018-04-24T13:03:18.579Z,28.54
2018-04-24T13:05:46.165Z,28.32
2018-04-24T13:08:13.707Z,28.30
2018-04-24T13:10:41.245Z,28.44
2018-04-24T13:13:08.836Z,28.63
2018-04-24T13:15:36.377Z,28.91
2018-04-24T13:18:03.933Z,29.14
2018-04-24T13:20:31.507Z,29.25
2018-04-24T13:22:59.057Z,29.25
2018-04-24T13:25:26.603Z,29.35
2018-04-24T13:27:54.482Z,29.45
2018-04-24T13:30:22.043Z,29.45
2018-04-24T13:32:49.602Z,29.32
2018-04-24T13:35:17.187Z,29.33
2018-04-24T13:37:44.727Z,29.35
2018-04-24T13:40:12.269Z,29.37
2018-04-24T13:42:39.853Z,29.40
2018-04-24T13:45:07.411Z,29.45
2018-04-24T13:47:34.958Z,29.45
2018-04-24T13:50:02.552Z,29.41
2018-04-24T13:52:30.090Z,29.43
2018-04-24T13:54:57.622Z,29.31
2018-04-24T13:57:25.295Z,29.24
2018-04-24T13:59:52.836Z,29.31
2018-04-24T14:02:20.373Z,29.33
2018-04-24T14:04:48.243Z,29.14
2018-04-24T14:07:15.795Z,29.09
2018-04-24T14:09:43.347Z,29.13
2018-04-24T14:12:10.970Z,29.20
2018-04-24T14:14:38.529Z,29.19
2018-04-24T14:17:06.055Z,29.25
2018-04-24T14:19:33.808Z,29.25
2018-04-24T14:22:01.340Z,29.22
2018-04-24T14:24:28.883Z,29.23
2018-04-24T14:26:56.462Z,29.15
2018-04-24T14:29:24.027Z,29.08
2018-04-24T14:31:51.579Z,29.00
2018-04-24T14:34:19.175Z,28.90
2018-04-24T14:36:46.706Z,28.79
2018-04-24T14:39:14.248Z,28.73
2018-04-24T14:41:41.974Z,28.70
2018-04-24T14:44:09.515Z,28.57
2018-04-24T14:46:37.044Z,28.31
2018-04-24T14:49:04.740Z,28.19
2018-04-24T14:51:32.303Z,28.26
2018-04-24T14:53:59.860Z,28.26
2018-04-24T14:56:27.532Z,28.32
2018-04-24T14:58:55.073Z,28.31
2018-04-24T15:01:22.629Z,28.32
2018-04-24T15:03:50.208Z,28.26
2018-04-24T15:06:17.743Z,28.13
2018-04-24T15:08:45.302Z,28.11
2018-04-24T15:11:12.984Z,28.03
2018-04-24T15:13:40.528Z,28.04
2018-04-24T15:16:08.079Z,28.00
2018-04-24T15:18:35.677Z,27.94
2018-04-24T15:21:03.215Z,27.87
2018-04-24T15:23:30.756Z,27.85
2018-04-24T15:25:58.321Z,27.84
2018-04-24T15:28:25.852Z,27.79
2018-04-24T15:30:53.413Z,27.79
2018-04-24T15:33:21.073Z,27.77
2018-04-24T15:35:48.647Z,27.72
2018-04-24T15:38:16.175Z,27.48
2018-04-24T15:40:44.041Z,27.44
2018-04-24T15:43:11.602Z,27.30
2018-04-24T15:45:39.156Z,27.16
2018-04-24T15:48:06.730Z,27.04
2018-04-24T15:50:34.290Z,26.98
2018-04-24T15:53:01.852Z,26.88
2018-04-24T15:55:29.387Z,26.83
2018-04-24T15:57:56.934Z,26.75
2018-04-24T16:00:24.515Z,26.68
2018-04-24T16:02:52.107Z,26.63
2018-04-24T16:05:19.648Z,26.53
2018-04-24T16:07:47.323Z,26.45
2018-04-24T16:10:14.864Z,26.38
2018-04-24T16:12:42.397Z,26.20
2018-04-24T16:15:09.964Z,26.06
2018-04-24T16:17:37.518Z,25.88
2018-04-24T16:20:05.116Z,25.79
2018-04-24T16:22:32.856Z,25.59
2018-04-24T16:25:00.392Z,25.42
2018-04-24T16:27:27.932Z,25.22
2018-04-24T16:29:55.649Z,25.05
2018-04-24T16:32:23.197Z,24.89
2018-04-24T16:34:50.759Z,24.68
2018-04-24T16:37:18.423Z,24.49
2018-04-24T16:39:45.979Z,24.27
2018-04-24T16:42:13.564Z,23.96
2018-04-24T16:44:41.454Z,23.81
2018-04-24T16:47:08.993Z,23.72
2018-04-24T16:49:36.554Z,23.57
2018-04-24T16:52:04.141Z,23.40
2018-04-24T16:54:31.682Z,23.22
2018-04-24T16:56:59.218Z,23.07
2018-04-24T16:59:27.078Z,22.92
2018-04-24T17:01:54.608Z,22.81
2018-04-24T17:04:22.144Z,22.68
2018-04-24T17:06:49.920Z,22.53
2018-04-24T17:09:17.471Z,22.40
2018-04-24T17:11:45.033Z,22.28
2018-04-24T17:14:12.627Z,22.24
2018-04-24T17:16:40.186Z,22.20
2018-04-24T17:19:07.734Z,22.21
2018-04-24T17:21:35.460Z,22.24
2018-04-24T17:24:03.032Z,22.22
2018-04-24T17:26:30.584Z,22.19
2018-04-24T17:28:58.274Z,22.22
2018-04-24T17:31:25.842Z,22.25
2018-04-24T17:33:53.387Z,22.26
2018-04-24T17:36:20.958Z,22.22
2018-04-24T17:38:48.517Z,22.14
2018-04-24T17:41:16.063Z,22.07
2018-04-24T17:43:43.661Z,21.99
2018-04-24T17:46:11.241Z,21.92
2018-04-24T17:48:38.845Z,21.87
2018-04-24T17:51:06.441Z,21.88
2018-04-24T17:53:34.016Z,21.87
2018-04-24T17:56:01.584Z,21.71
2018-04-24T17:58:29.394Z,21.61
2018-04-24T18:00:56.992Z,21.49
2018-04-24T18:03:24.558Z,21.43
2018-04-24T18:05:52.168Z,21.35
2018-04-24T18:08:19.745Z,21.29
2018-04-24T18:10:47.281Z,21.07
2018-04-24T18:13:14.890Z,20.88
2018-04-24T18:15:42.446Z,20.64
2018-04-24T18:18:10.019Z,20.68
2018-04-24T18:20:37.777Z,20.66
2018-04-24T18:23:05.352Z,20.63
2018-04-24T18:25:32.889Z,20.58
2018-04-24T18:28:00.476Z,20.56
2018-04-24T18:30:28.047Z,20.55
2018-04-24T18:32:55.701Z,20.41
2018-04-24T18:35:23.277Z,20.34
2018-04-24T18:37:50.817Z,20.30
2018-04-24T18:40:18.363Z,20.20
2018-04-24T18:42:46.076Z,20.07
2018-04-24T18:45:13.629Z,19.92
2018-04-24T18:47:41.181Z,19.87
2018-04-24T18:50:09.052Z,19.82
2018-04-24T18:52:36.597Z,19.76
2018-04-24T18:55:04.324Z,19.69
2018-04-24T18:57:32.095Z,19.68
2018-04-24T18:59:59.667Z,19.60
2018-04-24T19:02:27.246Z,19.46
2018-04-24T19:04:55.018Z,19.42
2018-04-24T19:07:22.610Z,19.35
2018-04-24T19:09:50.158Z,19.32
2018-04-24T19:12:17.742Z,19.24
2018-04-24T19:14:45.313Z,19.25
2018-04-24T19:17:12.877Z,19.22
2018-04-24T19:19:40.676Z,19.20
2018-04-24T19:22:08.178Z,19.15
2018-04-24T19:24:41.379Z,19.14
2018-04-24T19:27:08.916Z,19.16
2018-04-24T19:29:36.525Z,19.22
2018-04-24T19:32:09.677Z,19.21
2018-04-24T19:34:37.246Z,19.21
2018-04-24T19:37:04.810Z,19.23
2018-04-24T19:39:38.000Z,19.18
2018-04-24T19:42:05.573Z,19.14
2018-04-24T19:44:33.117Z,19.17
2018-04-24T19:47:00.647Z,19.13
2018-04-24T19:49:33.653Z,19.08
2018-04-24T19:52:01.268Z,19.06
2018-04-24T19:54:28.813Z,19.10
2018-04-24T19:56:56.360Z,19.08
2018-04-24T19:59:23.937Z,19.01
2018-04-24T20:01:51.485Z,19.02
2018-04-24T20:04:19.016Z,19.03
2018-04-24T20:06:46.588Z,19.06
2018-04-24T20:09:14.120Z,19.04
2018-04-24T20:11:41.663Z,18.99
2018-04-24T20:14:09.375Z,18.94
2018-04-24T20:16:36.916Z,18.91
2018-04-24T20:19:04.461Z,18.87
2018-04-24T20:21:32.140Z,18.80
2018-04-24T20:23:59.749Z,18.73
2018-04-24T20:26:27.309Z,18.62
2018-04-24T20:28:54.888Z,18.56
2018-04-24T20:31:22.438Z,18.45
2018-04-24T20:33:50.005Z,18.31
2018-04-24T20:36:17.590Z,18.08
2018-04-24T20:38:45.231Z,17.81
2018-04-24T20:41:12.707Z,17.63
2018-04-24T20:43:40.394Z,17.35
2018-04-24T20:46:08.008Z,17.24
2018-04-24T20:48:35.556Z,17.25
2018-04-24T20:51:03.124Z,17.08
2018-04-24T20:53:30.774Z,17.06
2018-04-24T20:55:58.239Z,16.89
2018-04-24T20:58:25.960Z,16.85
2018-04-24T21:00:53.626Z,16.80
2018-04-24T21:03:21.105Z,16.72
2018-04-24T21:05:48.678Z,16.70
2018-04-24T21:08:16.221Z,16.63
2018-04-24T21:10:43.770Z,16.51
2018-04-24T21:13:11.654Z,16.47
2018-04-24T21:15:39.213Z,16.44
2018-04-24T21:18:06.779Z,16.37
2018-04-24T21:20:34.402Z,16.38
2018-04-24T21:23:01.971Z,16.34
2018-04-24T21:25:29.518Z,16.27
2018-04-24T21:27:57.236Z,16.22
2018-04-24T21:30:24.801Z,16.13
2018-04-24T21:32:52.342Z,16.01
2018-04-24T21:35:19.908Z,15.96
2018-04-24T21:37:47.490Z,15.93
2018-04-24T21:40:15.028Z,15.87
2018-04-24T21:42:42.602Z,15.91
2018-04-24T21:45:10.136Z,15.84
2018-04-24T21:47:37.677Z,15.77
2018-04-24T21:50:05.414Z,15.87
2018-04-24T21:52:32.941Z,15.89
2018-04-24T21:55:00.479Z,15.91
2018-04-24T21:57:28.036Z,15.97
2018-04-24T21:59:55.573Z,15.96
2018-04-24T22:02:23.130Z,16.02
2018-04-24T22:04:50.691Z,16.08
2018-04-24T22:07:18.225Z,16.13
2018-04-24T22:09:45.780Z,16.18
2018-04-24T22:12:13.657Z,16.18
2018-04-24T22:14:41.191Z,16.18
2018-04-24T22:17:08.720Z,16.19
2018-04-24T22:19:36.442Z,16.20
2018-04-24T22:22:04.008Z,16.19
2018-04-24T22:24:31.538Z,16.15
2018-04-24T22:26:59.428Z,16.11
2018-04-24T22:29:26.996Z,16.11
2018-04-24T22:31:54.536Z,16.15
2018-04-24T22:34:22.117Z,16.14
2018-04-24T22:36:49.676Z,16.18
2018-04-24T22:39:17.284Z,16.15
2018-04-24T22:41:45.042Z,16.17
2018-04-24T22:44:12.576Z,16.19
2018-04-24T22:46:40.121Z,16.16
2018-04-24T22:49:07.657Z,16.11
2018-04-24T22:51:35.195Z,16.10
2018-04-24T22:54:02.774Z,16.06
2018-04-24T22:56:30.312Z,16.06
2018-04-24T22:58:57.842Z,16.04
2018-04-24T23:01:25.403Z,16.01
2018-04-24T23:03:52.943Z,16.01
2018-04-24T23:06:20.486Z,16.02
2018-04-24T23:08:48.417Z,15.98
2018-04-24T23:11:28.084Z,15.94
2018-04-24T23:14:07.456Z,15.93
2018-04-24T23:16:46.814Z,15.93
2018-04-24T23:19:26.201Z,15.87
2018-04-24T23:21:53.205Z,15.79
2018-04-24T23:24:20.751Z,15.75
2018-04-24T23:26:48.425Z,15.71
2018-04-24T23:29:15.960Z,15.63
2018-04-24T23:31:43.566Z,15.51
2018-04-24T23:34:11.164Z,15.31
2018-04-24T23:36:38.700Z,15.31
2018-04-24T23:39:06.290Z,15.24
2018-04-24T23:41:34.037Z,15.20
2018-04-24T23:44:01.573Z,15.10
2018-04-24T23:46:29.123Z,14.93
2018-04-24T23:48:56.676Z,14.90
2018-04-24T23:51:24.234Z,14.88
2018-04-24T23:53:51.833Z,14.83
2018-04-24T23:56:19.392Z,14.82
2018-04-24T23:58:46.929Z,14.79
